createdAt,value
2022-09-11T00:00:53.330Z,0.50
2022-09-11T00:03:21.597Z,0.52
2022-09-11T00:05:48.205Z,0.52
2022-09-11T00:08:19.398Z,0.50
2022-09-11T00:10:49.554Z,0.60
2022-09-11T00:13:19.682Z,0.63
2022-09-11T00:15:46.426Z,0.57
2022-09-11T00:18:14.795Z,0.50
2022-09-11T00:20:47.260Z,0.55
2022-09-11T00:23:17.729Z,0.57
2022-09-11T00:25:46.393Z,0.98
2022-09-11T00:28:17.552Z,0.90
2022-09-11T00:30:47.195Z,0.80
2022-09-11T00:33:14.467Z,0.60
2022-09-11T00:35:41.771Z,0.50
2022-09-11T00:38:08.996Z,0.80
2022-09-11T00:40:45.680Z,0.57
2022-09-11T00:43:14.409Z,0.73
2022-09-11T00:45:41.101Z,0.60
2022-09-11T00:48:09.405Z,0.60
2022-09-11T00:50:36.056Z,0.70
2022-09-11T00:53:08.116Z,0.75
2022-09-11T00:55:37.476Z,0.60
2022-09-11T00:58:09.812Z,0.80
2022-09-11T01:00:39.567Z,0.73
2022-09-11T01:03:06.371Z,0.68
2022-09-11T01:05:35.722Z,0.50
2022-09-11T01:08:03.912Z,1.08
2022-09-11T01:10:38.311Z,0.75
2022-09-11T01:13:24.314Z,0.60
2022-09-11T01:16:12.511Z,0.70
2022-09-11T01:18:39.106Z,0.70
2022-09-11T01:21:11.509Z,0.60
2022-09-11T01:23:48.345Z,0.50
2022-09-11T01:26:24.772Z,0.65
2022-09-11T01:28:57.857Z,0.60
2022-09-11T01:31:26.727Z,0.70
2022-09-11T01:34:12.009Z,0.82
2022-09-11T01:36:41.095Z,0.52
2022-09-11T01:39:07.817Z,0.50
2022-09-11T01:41:56.612Z,0.60
2022-09-11T01:44:27.439Z,0.57
2022-09-11T01:46:54.115Z,0.60
2022-09-11T01:49:23.802Z,0.52
2022-09-11T01:51:52.951Z,0.50
2022-09-11T01:54:21.558Z,0.60
2022-09-11T01:56:53.634Z,0.60
2022-09-11T01:59:22.165Z,0.60
2022-09-11T02:01:51.519Z,0.60
2022-09-11T02:04:23.274Z,0.60
2022-09-11T02:06:53.161Z,0.60
2022-09-11T02:09:21.913Z,0.63
2022-09-11T02:11:50.361Z,0.73
2022-09-11T02:14:32.328Z,0.50
2022-09-11T02:17:11.289Z,0.80
2022-09-11T02:19:39.809Z,0.60
2022-09-11T02:22:07.905Z,0.70
2022-09-11T02:24:34.816Z,0.70
2022-09-11T02:27:03.128Z,0.70
2022-09-11T02:29:29.960Z,0.50
2022-09-11T02:31:56.667Z,0.80
2022-09-11T02:34:28.255Z,0.60
2022-09-11T02:36:58.092Z,0.70
2022-09-11T02:39:24.711Z,0.75
2022-09-11T02:41:52.001Z,0.98
2022-09-11T02:44:19.963Z,0.70
2022-09-11T02:47:05.702Z,0.80
2022-09-11T02:49:58.791Z,0.90
2022-09-11T02:52:32.000Z,0.85
2022-09-11T02:55:02.275Z,0.80
2022-09-11T02:57:32.002Z,0.73
2022-09-11T03:00:02.362Z,0.70
2022-09-11T03:02:34.161Z,0.82
2022-09-11T03:05:00.791Z,0.90
2022-09-11T03:07:27.441Z,0.95
2022-09-11T03:09:54.071Z,0.85
2022-09-11T03:12:20.791Z,1.00
2022-09-11T03:14:48.813Z,0.65
2022-09-11T03:17:15.656Z,0.93
2022-09-11T03:19:42.255Z,0.90
2022-09-11T03:22:08.895Z,0.80
2022-09-11T03:24:35.608Z,0.80
2022-09-11T03:27:02.297Z,1.15
2022-09-11T03:29:28.870Z,1.05
2022-09-11T03:31:57.502Z,0.90
2022-09-11T03:34:24.326Z,1.10
2022-09-11T03:36:50.906Z,0.70
2022-09-11T03:39:17.648Z,0.77
2022-09-11T03:41:44.365Z,0.90
2022-09-11T03:44:13.074Z,1.00
2022-09-11T03:46:40.054Z,1.17
2022-09-11T03:49:06.698Z,0.90
2022-09-11T03:51:33.393Z,1.25
2022-09-11T03:54:01.047Z,0.93
2022-09-11T03:56:28.961Z,0.70
2022-09-11T03:58:57.314Z,0.90
2022-09-11T04:01:24.369Z,1.00
2022-09-11T04:03:51.121Z,0.80
2022-09-11T04:06:17.831Z,0.85
2022-09-11T04:08:44.535Z,0.73
2022-09-11T04:11:14.493Z,0.77
2022-09-11T04:13:42.305Z,1.08
2022-09-11T04:16:12.076Z,0.90
2022-09-11T04:18:39.390Z,0.65
2022-09-11T04:21:07.271Z,0.85
2022-09-11T04:23:34.296Z,0.75
2022-09-11T04:26:01.273Z,0.70
2022-09-11T04:28:28.557Z,1.13
2022-09-11T04:30:56.961Z,0.80
2022-09-11T04:33:24.861Z,1.00
2022-09-11T04:35:51.494Z,1.05
2022-09-11T04:38:18.953Z,0.93
2022-09-11T04:40:45.791Z,0.90
2022-09-11T04:43:12.660Z,0.85
2022-09-11T04:45:40.627Z,0.82
2022-09-11T04:48:07.352Z,1.00
2022-09-11T04:50:33.914Z,0.82
2022-09-11T04:53:00.721Z,0.80
2022-09-11T04:55:27.322Z,1.00
2022-09-11T04:57:54.231Z,1.23
2022-09-11T05:00:20.976Z,1.00
2022-09-11T05:02:48.040Z,1.10
2022-09-11T05:05:14.680Z,0.80
2022-09-11T05:07:41.319Z,1.08
2022-09-11T05:10:08.427Z,0.85
2022-09-11T05:12:34.980Z,1.33
2022-09-11T05:15:01.530Z,1.00
2022-09-11T05:17:28.216Z,1.00
2022-09-11T05:19:56.193Z,1.05
2022-09-11T05:22:23.400Z,1.45
2022-09-11T05:24:50.072Z,1.52
2022-09-11T05:27:16.776Z,1.58
2022-09-11T05:29:43.977Z,0.93
2022-09-11T05:32:10.594Z,1.45
2022-09-11T05:34:37.246Z,1.25
2022-09-11T05:37:03.854Z,1.50
2022-09-11T05:39:30.551Z,1.63
2022-09-11T05:41:57.253Z,1.27
2022-09-11T05:44:23.880Z,0.90
2022-09-11T05:46:50.537Z,1.58
2022-09-11T05:49:17.833Z,1.30
2022-09-11T05:51:44.404Z,1.27
2022-09-11T05:54:11.074Z,1.17
2022-09-11T05:56:37.694Z,1.40
2022-09-11T05:59:04.946Z,1.25
2022-09-11T06:01:31.703Z,1.40
2022-09-11T06:03:58.320Z,1.13
2022-09-11T06:06:25.563Z,1.83
2022-09-11T06:08:53.108Z,1.20
2022-09-11T06:11:20.509Z,1.00
2022-09-11T06:13:47.728Z,1.35
2022-09-11T06:16:18.638Z,1.42
2022-09-11T06:18:49.724Z,0.93
2022-09-11T06:21:20.846Z,1.38
2022-09-11T06:23:52.138Z,1.33
2022-09-11T06:26:21.457Z,1.00
2022-09-11T06:28:48.215Z,1.58
2022-09-11T06:31:18.721Z,1.38
2022-09-11T06:33:45.881Z,1.48
2022-09-11T06:36:16.752Z,1.50
2022-09-11T06:38:44.618Z,1.25
2022-09-11T06:41:14.132Z,1.50
2022-09-11T06:43:41.330Z,1.40
2022-09-11T06:46:18.970Z,1.15
2022-09-11T06:48:46.942Z,1.17
2022-09-11T06:51:14.847Z,0.98
2022-09-11T06:53:42.162Z,1.08
2022-09-11T06:56:12.492Z,1.15
2022-09-11T06:58:40.142Z,1.30
2022-09-11T07:01:08.115Z,0.93
2022-09-11T07:03:34.859Z,1.20
2022-09-11T07:06:01.494Z,1.52
2022-09-11T07:08:28.160Z,1.30
2022-09-11T07:10:55.063Z,1.30
2022-09-11T07:13:24.421Z,1.27
2022-09-11T07:15:59.937Z,1.40
2022-09-11T07:18:26.596Z,1.40
2022-09-11T07:20:53.218Z,0.90
2022-09-11T07:23:20.212Z,1.35
2022-09-11T07:25:46.897Z,1.15
2022-09-11T07:28:13.391Z,0.68
2022-09-11T07:30:41.161Z,1.02
2022-09-11T07:33:07.853Z,1.55
2022-09-11T07:35:36.885Z,1.40
2022-09-11T07:38:03.716Z,1.65
2022-09-11T07:40:31.532Z,1.55
2022-09-11T07:42:58.164Z,1.20
2022-09-11T07:45:24.762Z,0.77
2022-09-11T07:47:51.411Z,0.90
2022-09-11T07:50:18.205Z,0.90
2022-09-11T07:52:45.035Z,1.20
2022-09-11T07:55:11.598Z,0.90
2022-09-11T07:57:38.579Z,0.90
2022-09-11T08:00:05.664Z,1.40
2022-09-11T08:02:32.286Z,1.08
2022-09-11T08:04:59.128Z,0.75
2022-09-11T08:07:26.390Z,0.75
2022-09-11T08:10:10.418Z,1.13
2022-09-11T08:12:40.084Z,1.10
2022-09-11T08:15:06.943Z,1.00
2022-09-11T08:17:34.624Z,1.20
2022-09-11T08:20:01.370Z,1.05
2022-09-11T08:22:28.236Z,1.05
2022-09-11T08:24:54.871Z,1.05
2022-09-11T08:27:21.640Z,1.10
2022-09-11T08:29:48.345Z,1.00
2022-09-11T08:32:15.056Z,1.00
2022-09-11T08:34:42.424Z,0.90
2022-09-11T08:37:09.144Z,1.27
2022-09-11T08:39:35.939Z,0.98
2022-09-11T08:42:06.200Z,1.20
2022-09-11T08:44:44.096Z,1.05
2022-09-11T08:47:15.346Z,1.20
2022-09-11T08:49:46.545Z,0.77
2022-09-11T08:52:14.203Z,1.15
2022-09-11T08:54:41.885Z,1.45
2022-09-11T08:57:11.411Z,0.98
2022-09-11T08:59:50.496Z,1.02
2022-09-11T09:02:18.445Z,0.80
2022-09-11T09:04:53.619Z,0.95
2022-09-11T09:07:28.657Z,1.10
2022-09-11T09:10:01.440Z,1.50
2022-09-11T09:12:37.464Z,1.05
2022-09-11T09:15:19.645Z,1.40
2022-09-11T09:17:59.515Z,0.90
2022-09-11T09:20:31.752Z,1.30
2022-09-11T09:23:00.974Z,1.10
2022-09-11T09:25:27.963Z,0.90
2022-09-11T09:28:11.590Z,1.00
2022-09-11T09:30:44.022Z,1.30
2022-09-11T09:33:29.308Z,1.15
2022-09-11T09:35:57.269Z,1.17
2022-09-11T09:38:27.370Z,1.05
2022-09-11T09:41:01.030Z,1.63
2022-09-11T09:43:27.863Z,1.38
2022-09-11T09:45:57.509Z,1.58
2022-09-11T09:48:25.193Z,1.05
2022-09-11T09:50:51.997Z,1.00
2022-09-11T09:53:41.973Z,1.35
2022-09-11T09:56:10.741Z,1.38
2022-09-11T09:58:40.273Z,1.38
2022-09-11T10:01:27.155Z,1.10
2022-09-11T10:04:11.254Z,1.27
2022-09-11T10:06:37.861Z,1.13
2022-09-11T10:09:04.507Z,1.42
2022-09-11T10:11:31.306Z,2.28
2022-09-11T10:13:57.890Z,1.98
2022-09-11T10:16:28.753Z,1.02
2022-09-11T10:18:56.156Z,1.17
2022-09-11T10:21:30.417Z,1.58
2022-09-11T10:23:58.407Z,1.40
2022-09-11T10:26:27.972Z,1.73
2022-09-11T10:28:56.417Z,2.15
2022-09-11T10:31:23.105Z,1.83
2022-09-11T10:33:56.624Z,2.03
2022-09-11T10:36:24.484Z,1.73
2022-09-11T10:38:52.074Z,2.08
2022-09-11T10:41:39.296Z,1.90
2022-09-11T10:44:13.148Z,1.77
2022-09-11T10:46:41.220Z,1.60
2022-09-11T10:49:08.442Z,1.90
2022-09-11T10:51:36.297Z,1.90
2022-09-11T10:54:21.633Z,2.50
2022-09-11T10:56:58.891Z,1.83
2022-09-11T10:59:31.646Z,2.00
2022-09-11T11:01:59.045Z,1.80
2022-09-11T11:04:27.326Z,2.80
2022-09-11T11:06:56.773Z,2.40
2022-09-11T11:09:38.666Z,2.15
2022-09-11T11:12:13.477Z,2.30
2022-09-11T11:14:59.170Z,1.85
2022-09-11T11:17:38.001Z,1.60
2022-09-11T11:20:07.560Z,2.10
2022-09-11T11:22:46.879Z,2.00
2022-09-11T11:25:17.688Z,1.63
2022-09-11T11:27:58.201Z,1.65
2022-09-11T11:30:29.752Z,1.83
2022-09-11T11:33:05.567Z,1.98
2022-09-11T11:35:51.076Z,1.73
2022-09-11T11:38:29.997Z,1.77
2022-09-11T11:41:07.943Z,2.03
2022-09-11T11:43:37.764Z,1.88
2022-09-11T11:46:04.848Z,1.80
2022-09-11T11:48:36.945Z,2.15
2022-09-11T11:51:06.649Z,1.60
2022-09-11T11:53:37.150Z,1.50
2022-09-11T11:56:19.043Z,1.90
2022-09-11T11:58:47.467Z,1.85
2022-09-11T12:01:19.086Z,1.45
2022-09-11T12:03:50.579Z,2.22
2022-09-11T12:06:17.355Z,1.65
2022-09-11T12:08:47.395Z,2.22
2022-09-11T12:11:18.877Z,1.92
2022-09-11T12:13:47.062Z,1.83
2022-09-11T12:16:17.521Z,1.73
2022-09-11T12:19:04.921Z,1.73
2022-09-11T12:21:31.901Z,1.85
2022-09-11T12:23:58.583Z,2.00
2022-09-11T12:26:26.033Z,1.60
2022-09-11T12:29:14.140Z,1.38
2022-09-11T12:31:49.831Z,1.92
2022-09-11T12:34:23.212Z,1.90
2022-09-11T12:36:49.869Z,2.00
2022-09-11T12:39:25.100Z,1.80
2022-09-11T12:41:51.665Z,1.83
2022-09-11T12:44:30.516Z,1.75
2022-09-11T12:46:57.113Z,1.95
2022-09-11T12:49:25.455Z,1.70
2022-09-11T12:51:53.996Z,2.05
2022-09-11T12:54:26.469Z,2.40
2022-09-11T12:56:59.409Z,1.70
2022-09-11T12:59:30.253Z,2.00
2022-09-11T13:01:57.812Z,2.13
2022-09-11T13:04:26.103Z,2.03
2022-09-11T13:06:57.294Z,2.20
2022-09-11T13:09:26.703Z,1.50
2022-09-11T13:11:54.652Z,1.83
2022-09-11T13:14:30.143Z,1.88
2022-09-11T13:16:57.880Z,2.00
2022-09-11T13:19:31.494Z,2.10
2022-09-11T13:21:58.198Z,1.85
2022-09-11T13:24:30.438Z,2.15
2022-09-11T13:27:17.997Z,2.08
2022-09-11T13:29:48.473Z,1.83
2022-09-11T13:32:16.025Z,1.45
2022-09-11T13:34:44.045Z,1.70
2022-09-11T13:37:13.325Z,1.70
2022-09-11T13:39:41.807Z,1.50
2022-09-11T13:42:12.516Z,1.30
2022-09-11T13:44:52.500Z,1.27
2022-09-11T13:47:23.603Z,1.30
2022-09-11T13:49:51.530Z,1.63
2022-09-11T13:52:18.815Z,1.50
2022-09-11T13:54:57.514Z,1.30
2022-09-11T13:57:25.334Z,1.50
2022-09-11T13:59:55.120Z,1.35
2022-09-11T14:02:21.895Z,1.35
2022-09-11T14:04:52.537Z,1.33
2022-09-11T14:07:21.245Z,1.48
2022-09-11T14:09:51.324Z,1.30
2022-09-11T14:12:20.467Z,1.20
2022-09-11T14:14:50.006Z,1.38
2022-09-11T14:17:17.452Z,1.30
2022-09-11T14:19:45.479Z,1.02
2022-09-11T14:22:16.527Z,1.08
2022-09-11T14:24:56.857Z,1.20
2022-09-11T14:27:33.079Z,1.23
2022-09-11T14:29:59.879Z,1.30
2022-09-11T14:32:33.980Z,1.15
2022-09-11T14:35:01.205Z,1.08
2022-09-11T14:37:29.352Z,1.30
2022-09-11T14:39:58.250Z,1.10
2022-09-11T14:42:29.212Z,1.20
2022-09-11T14:44:56.323Z,1.10
2022-09-11T14:47:24.667Z,1.15
2022-09-11T14:49:54.854Z,1.10
2022-09-11T14:52:25.527Z,1.00
2022-09-11T14:54:52.217Z,1.40
2022-09-11T14:57:23.496Z,1.30
2022-09-11T14:59:50.527Z,1.45
2022-09-11T15:02:21.616Z,0.90
2022-09-11T15:04:48.816Z,1.00
2022-09-11T15:07:16.169Z,1.10
2022-09-11T15:09:43.048Z,1.02
2022-09-11T15:12:10.513Z,1.27
2022-09-11T15:14:55.805Z,1.10
2022-09-11T15:17:25.143Z,1.20
2022-09-11T15:19:52.883Z,1.45
2022-09-11T15:22:23.418Z,1.30
2022-09-11T15:24:50.035Z,1.30
2022-09-11T15:27:19.392Z,1.40
2022-09-11T15:29:46.306Z,1.15
2022-09-11T15:32:14.597Z,1.30
2022-09-11T15:34:44.096Z,1.52
2022-09-11T15:37:11.941Z,1.30
2022-09-11T15:39:38.854Z,1.45
2022-09-11T15:42:07.723Z,1.48
2022-09-11T15:44:35.569Z,1.40
2022-09-11T15:47:04.426Z,1.50
2022-09-11T15:49:31.915Z,1.58
2022-09-11T15:51:59.779Z,1.50
2022-09-11T15:54:26.863Z,1.75
2022-09-11T15:56:54.246Z,1.80
2022-09-11T15:59:20.983Z,1.60
2022-09-11T16:01:48.173Z,1.30
2022-09-11T16:04:16.745Z,1.55
2022-09-11T16:06:45.933Z,1.33
2022-09-11T16:09:23.130Z,1.20
2022-09-11T16:11:50.753Z,1.30
2022-09-11T16:14:17.517Z,1.38
2022-09-11T16:16:47.260Z,1.50
2022-09-11T16:19:17.665Z,1.20
2022-09-11T16:21:44.773Z,1.42
2022-09-11T16:24:12.388Z,1.35
2022-09-11T16:26:39.921Z,1.30
2022-09-11T16:29:08.134Z,1.35
2022-09-11T16:31:34.856Z,1.33
2022-09-11T16:34:05.166Z,1.10
2022-09-11T16:36:38.504Z,1.30
2022-09-11T16:39:09.272Z,1.30
2022-09-11T16:41:37.295Z,1.20
2022-09-11T16:44:04.675Z,1.55
2022-09-11T16:46:31.482Z,1.30
2022-09-11T16:49:01.624Z,1.30
2022-09-11T16:51:29.886Z,1.25
2022-09-11T16:54:00.263Z,1.48
2022-09-11T16:56:29.681Z,1.60
2022-09-11T16:58:56.409Z,1.20
2022-09-11T17:01:24.358Z,1.58
2022-09-11T17:03:52.207Z,1.40
2022-09-11T17:06:22.418Z,1.83
2022-09-11T17:08:52.575Z,1.30
2022-09-11T17:11:20.367Z,1.35
2022-09-11T17:13:47.695Z,1.20
2022-09-11T17:16:16.755Z,1.40
2022-09-11T17:18:47.729Z,1.38
2022-09-11T17:21:14.688Z,1.35
2022-09-11T17:23:41.462Z,1.40
2022-09-11T17:26:08.928Z,1.25
2022-09-11T17:28:38.927Z,1.20
2022-09-11T17:31:07.932Z,1.20
2022-09-11T17:33:35.712Z,1.30
2022-09-11T17:36:03.368Z,1.40
2022-09-11T17:38:30.033Z,1.48
2022-09-11T17:41:01.611Z,1.23
2022-09-11T17:43:28.298Z,1.50
2022-09-11T17:46:04.865Z,1.40
2022-09-11T17:48:32.025Z,1.45
2022-09-11T17:51:02.497Z,1.50
2022-09-11T17:53:33.444Z,1.60
2022-09-11T17:56:07.532Z,1.58
2022-09-11T17:58:34.952Z,1.40
2022-09-11T18:01:03.035Z,1.30
2022-09-11T18:03:33.620Z,1.27
2022-09-11T18:06:00.992Z,1.33
2022-09-11T18:08:28.086Z,1.35
2022-09-11T18:10:59.856Z,1.60
2022-09-11T18:13:27.255Z,1.58
2022-09-11T18:15:54.221Z,1.38
2022-09-11T18:18:21.034Z,1.65
2022-09-11T18:20:47.895Z,1.90
2022-09-11T18:23:16.818Z,1.50
2022-09-11T18:25:49.807Z,1.55
2022-09-11T18:28:16.664Z,1.60
2022-09-11T18:30:43.548Z,1.63
2022-09-11T18:33:11.046Z,1.33
2022-09-11T18:35:38.071Z,1.52
2022-09-11T18:38:05.524Z,1.65
2022-09-11T18:40:32.576Z,1.75
2022-09-11T18:43:00.027Z,1.70
2022-09-11T18:45:30.789Z,1.60
2022-09-11T18:47:57.481Z,1.58
2022-09-11T18:50:24.743Z,1.50
2022-09-11T18:52:52.214Z,1.73
2022-09-11T18:55:20.393Z,1.67
2022-09-11T18:57:49.104Z,1.98
2022-09-11T19:00:17.433Z,1.50
2022-09-11T19:02:45.129Z,1.70
2022-09-11T19:05:12.169Z,1.63
2022-09-11T19:07:38.808Z,1.83
2022-09-11T19:10:06.234Z,1.60
2022-09-11T19:12:33.015Z,1.73
2022-09-11T19:15:00.255Z,1.75
2022-09-11T19:17:27.030Z,1.80
2022-09-11T19:19:54.495Z,1.63
2022-09-11T19:22:23.017Z,1.27
2022-09-11T19:24:50.018Z,1.58
2022-09-11T19:27:17.344Z,1.45
2022-09-11T19:29:44.112Z,1.98
2022-09-11T19:32:10.766Z,1.70
2022-09-11T19:34:46.444Z,1.63
2022-09-11T19:37:14.691Z,1.80
2022-09-11T19:39:41.515Z,1.50
2022-09-11T19:42:09.395Z,1.40
2022-09-11T19:44:36.486Z,2.00
2022-09-11T19:47:03.263Z,2.17
2022-09-11T19:49:30.176Z,1.50
2022-09-11T19:51:57.448Z,1.65
2022-09-11T19:54:24.272Z,1.95
2022-09-11T19:56:51.336Z,1.90
2022-09-11T19:59:20.976Z,1.70
2022-09-11T20:01:47.753Z,1.90
2022-09-11T20:04:15.933Z,1.77
2022-09-11T20:12:00.522Z,1.83
2022-09-11T20:14:27.810Z,1.92
2022-09-11T20:16:54.655Z,1.70
2022-09-11T20:19:21.351Z,1.65
2022-09-11T20:21:47.951Z,1.48
2022-09-11T20:24:15.248Z,1.88
2022-09-11T20:26:42.255Z,1.63
2022-09-11T20:29:12.454Z,2.10
2022-09-11T20:31:47.014Z,1.80
2022-09-11T20:34:15.516Z,1.80
2022-09-11T20:36:42.173Z,1.90
2022-09-11T20:39:11.060Z,1.48
2022-09-11T20:41:37.825Z,1.55
2022-09-11T20:44:04.818Z,1.70
2022-09-11T20:46:31.608Z,1.70
2022-09-11T20:49:00.047Z,1.60
2022-09-11T20:51:27.194Z,1.70
2022-09-11T20:53:55.177Z,2.00
2022-09-11T20:56:24.006Z,1.80
2022-09-11T20:58:51.690Z,1.60
2022-09-11T21:01:23.299Z,1.70
2022-09-11T21:03:51.148Z,1.42
2022-09-11T21:06:22.055Z,1.75
2022-09-11T21:08:52.353Z,1.60
2022-09-11T21:11:19.056Z,1.70
2022-09-11T21:13:46.054Z,1.75
2022-09-11T21:16:14.253Z,1.60
2022-09-11T21:18:44.732Z,1.70
2022-09-11T21:21:11.621Z,1.40
2022-09-11T21:23:38.374Z,1.65
2022-09-11T21:26:08.755Z,1.58
2022-09-11T21:28:35.503Z,1.73
2022-09-11T21:31:02.432Z,1.55
2022-09-11T21:33:31.934Z,1.58
2022-09-11T21:35:58.687Z,1.63
2022-09-11T21:38:28.751Z,1.58
2022-09-11T21:40:56.015Z,1.55
2022-09-11T21:43:22.644Z,1.58
2022-09-11T21:45:49.291Z,1.73
2022-09-11T21:48:15.988Z,1.70
2022-09-11T21:50:42.927Z,1.88
2022-09-11T21:53:13.607Z,1.67
2022-09-11T21:55:41.410Z,1.50
2022-09-11T21:58:08.685Z,1.70
2022-09-11T22:00:38.435Z,1.67
2022-09-11T22:03:09.967Z,1.67
2022-09-11T22:05:39.128Z,1.55
2022-09-11T22:08:07.467Z,1.52
2022-09-11T22:10:34.255Z,1.13
2022-09-11T22:13:01.122Z,1.50
2022-09-11T22:15:30.047Z,1.33
2022-09-11T22:17:56.781Z,1.50
2022-09-11T22:20:23.576Z,1.38
2022-09-11T22:22:50.344Z,1.40
2022-09-11T22:25:17.260Z,1.50
2022-09-11T22:27:45.629Z,1.50
2022-09-11T22:30:12.697Z,1.33
2022-09-11T22:32:39.380Z,1.20
2022-09-11T22:35:08.536Z,1.35
2022-09-11T22:37:35.209Z,1.20
2022-09-11T22:40:02.342Z,1.48
2022-09-11T22:42:31.062Z,1.20
2022-09-11T22:44:57.748Z,1.63
2022-09-11T22:47:24.428Z,1.60
2022-09-11T22:49:51.058Z,1.33
2022-09-11T22:52:17.768Z,1.77
2022-09-11T22:54:44.785Z,1.27
2022-09-11T22:57:12.255Z,1.77
2022-09-11T22:59:39.115Z,2.03
2022-09-11T23:02:07.035Z,1.48
2022-09-11T23:04:33.818Z,1.92
2022-09-11T23:07:16.502Z,1.67
2022-09-11T23:09:44.136Z,1.50
2022-09-11T23:12:10.737Z,2.15
2022-09-11T23:14:37.554Z,1.65
2022-09-11T23:17:04.329Z,1.67
2022-09-11T23:19:34.487Z,1.77
2022-09-11T23:22:01.210Z,1.83
2022-09-11T23:24:27.948Z,1.52
2022-09-11T23:26:54.770Z,1.85
2022-09-11T23:29:21.447Z,1.73
2022-09-11T23:31:48.072Z,2.03
2022-09-11T23:34:16.474Z,1.83
2022-09-11T23:36:43.616Z,1.92
2022-09-11T23:39:10.652Z,1.73
2022-09-11T23:41:40.783Z,1.98
2022-09-11T23:44:07.574Z,2.25
2022-09-11T23:46:34.312Z,2.25
2022-09-11T23:49:01.002Z,2.15
2022-09-11T23:51:27.808Z,2.13
2022-09-11T23:53:54.537Z,1.75
2022-09-11T23:56:22.619Z,2.35
2022-09-11T23:58:49.924Z,2.22
